< < Back
Terminal Aerodrome Forecast


Current Version              Previous Versions:   1  2  3  4  5  6  7  8  9  

Terminal Aerodrome Forecast

614
FTUS42 KILM 241700
TAFILM
TAF
KILM 241720Z 2418/2518 VRB05KT P6SM SCT180 BKN250=

Latest METAR

168
SAUS70 KWBC 250900 RRF
MTRILM
METAR KILM 250853Z AUTO 00000KT 8SM CLR 08/07 A2996 RMK AO2 SLP146
T00780072 55006


USA.gov is the U.S. government's official web portal to all federal, state and local government web resources and services.